Savannah — WSW6620 — position and weather

sailwx.info

Track history (hours):
 
Tides and Currents Weather Stations Pressure Air Temp Water Temp Dewpoint Dewpoint Depression Visibility Wind Speed Wind Dir Waves Ship Positions

Savannah

Owner: SAVANNAH BAR PILOTS INC, SAVANNAH, GA. More information available from US FCC via Universal Licensing System and Coast Guard Vessel Documentation Center.

Last reported at 2017-Oct-18 11:00 UTC. Time now 2017-Oct-18 11:26 UTC.
Position N 32°02' W 080°54'.

Length 18 m; draft 1.5 m.

Type: Pilot. MMSI: 367061140.

Date/timePositionNaut miles runAvg speedWind from/ knotsBaromVisibWave heightAir tempDewpointWater temp
2017-Oct-18 11:00N 32°02' W 080°54'0 0.0
2017-Oct-18 10:31N 32°02' W 080°54'0 0.0
2017-Oct-18 10:01N 32°02' W 080°54'0 0.0
2017-Oct-18 09:31N 32°02' W 080°54'0 0.0
2017-Oct-18 09:00N 32°02' W 080°54'0 0.0
2017-Oct-18 08:31N 32°02' W 080°54'0 0.0
2017-Oct-18 08:00N 32°02' W 080°54'0 0.0
2017-Oct-18 07:31N 32°02' W 080°54'0 0.0
2017-Oct-18 07:00N 32°02' W 080°54'1313.6
2017-Oct-18 06:01N 31°56' W 080°40'3 7.3
2017-Oct-18 05:35N 31°58' W 080°43'113.9
2017-Oct-18 05:30N 31°58' W 080°44'917.8
2017-Oct-18 05:00N 32°02' W 080°54'0 0.5
2017-Oct-18 04:30N 32°02' W 080°54'0 0.0
2017-Oct-18 04:00N 32°02' W 080°54'0 0.0
2017-Oct-18 03:30N 32°02' W 080°54'0 0.0
2017-Oct-18 03:00N 32°02' W 080°54'0 0.0
2017-Oct-18 02:30N 32°02' W 080°54'0 0.0
2017-Oct-18 02:00N 32°02' W 080°54'0 0.0
2017-Oct-18 01:30N 32°02' W 080°54'0 0.0
2017-Oct-18 01:00N 32°02' W 080°54'510.9
2017-Oct-18 00:31N 32°01' W 080°48'1 2.5
2017-Oct-18 00:00N 31°60' W 080°47'510.2
2017-Oct-17 23:30N 32°02' W 080°52'2 3.3
2017-Oct-17 23:00N 32°02' W 080°54'0 0.0
2017-Oct-17 22:30N 32°02' W 080°54'0 0.0
2017-Oct-17 22:00N 32°02' W 080°54'0 0.0
2017-Oct-17 21:30N 32°02' W 080°54'0 0.0
2017-Oct-17 21:00N 32°02' W 080°54'0 0.0
2017-Oct-17 20:30N 32°02' W 080°54'0 0.0
2017-Oct-17 19:59N 32°02' W 080°54'0 0.0
2017-Oct-17 19:30N 32°02' W 080°54'0 0.0
2017-Oct-17 19:00N 32°02' W 080°54'0 0.0
2017-Oct-17 18:30N 32°02' W 080°54'0 0.0
2017-Oct-17 18:00N 32°02' W 080°54'0 0.0
2017-Oct-17 17:30N 32°02' W 080°54'0 0.0
2017-Oct-17 17:00N 32°02' W 080°54'4 7.7
2017-Oct-17 16:30N 32°02' W 080°50'1017.7
2017-Oct-17 15:54N 31°57' W 080°39'512.7
2017-Oct-17 15:29N 31°58' W 080°45'918.2
2017-Oct-17 15:01N 32°02' W 080°54'0 0.0
2017-Oct-17 14:30N 32°02' W 080°54'0 0.0
2017-Oct-17 14:01N 32°02' W 080°54'0 0.0
2017-Oct-17 13:31N 32°02' W 080°54'0 0.0
2017-Oct-17 13:00N 32°02' W 080°54'0 0.0
2017-Oct-17 12:30N 32°02' W 080°54'0 0.0
2017-Oct-17 12:01N 32°02' W 080°54'0 0.0
2017-Oct-17 11:31N 32°02' W 080°54'0 0.0
2017-Oct-17 11:01N 32°02' W 080°54'0 0.0
2017-Oct-17 10:31N 32°02' W 080°54'0 0.0
2017-Oct-17 10:01N 32°02' W 080°54'0 0.0
2017-Oct-17 09:30N 32°02' W 080°54'0 0.9
2017-Oct-17 09:00N 32°02' W 080°54'0 0.9
2017-Oct-17 08:30N 32°02' W 080°54'0 0.0
2017-Oct-17 08:01N 32°02' W 080°54'0 0.0
2017-Oct-17 07:31N 32°02' W 080°54'0 0.0
2017-Oct-17 07:01N 32°02' W 080°54'0 0.0
2017-Oct-17 06:31N 32°02' W 080°54'0 0.0
2017-Oct-17 06:01N 32°02' W 080°54'0 0.0
2017-Oct-17 05:30N 32°02' W 080°54'0 0.0
2017-Oct-17 05:01N 32°02' W 080°54'0 0.0
2017-Oct-17 04:31N 32°02' W 080°54'0 0.0
2017-Oct-17 04:00N 32°02' W 080°54'0 0.0
2017-Oct-17 03:31N 32°02' W 080°54'0 0.0
2017-Oct-17 03:00N 32°02' W 080°54'0 0.0
2017-Oct-17 02:30N 32°02' W 080°54'0 0.0
2017-Oct-17 02:00N 32°02' W 080°54'0 0.0
2017-Oct-17 01:31N 32°02' W 080°54'0 0.0
2017-Oct-17 01:01N 32°02' W 080°54'0 0.0
2017-Oct-17 00:31N 32°02' W 080°54'0 0.0
2017-Oct-17 00:01N 32°02' W 080°54'0 0.0
2017-Oct-16 23:30N 32°02' W 080°54'0 0.0
2017-Oct-16 23:01N 32°02' W 080°54'0 0.0
2017-Oct-16 22:31N 32°02' W 080°54'0 0.0
2017-Oct-16 22:01N 32°02' W 080°54'0 0.0
2017-Oct-16 21:30N 32°02' W 080°54'0 0.0
2017-Oct-16 21:01N 32°02' W 080°54'0 0.0
2017-Oct-16 20:30N 32°02' W 080°54'0 0.0
2017-Oct-16 20:01N 32°02' W 080°54'0 0.0
2017-Oct-16 19:30N 32°02' W 080°54'0 0.0
2017-Oct-16 19:00N 32°02' W 080°54'0 0.0
2017-Oct-16 18:31N 32°02' W 080°54'0 0.0
2017-Oct-16 18:01N 32°02' W 080°54'0 0.0
2017-Oct-16 17:31N 32°02' W 080°54'0 0.0
2017-Oct-16 17:00N 32°02' W 080°54'0 0.0
2017-Oct-16 16:31N 32°02' W 080°54'0 0.0
2017-Oct-16 16:01N 32°02' W 080°54'0 0.0
2017-Oct-16 15:31N 32°02' W 080°54'0 0.0
2017-Oct-16 15:01N 32°02' W 080°54'0 0.0
2017-Oct-16 14:30N 32°02' W 080°54'0 0.0
2017-Oct-16 13:31N 32°02' W 080°54'0 0.0
2017-Oct-16 13:01N 32°02' W 080°54'0 0.0
2017-Oct-16 12:30N 32°02' W 080°54'0 0.0
2017-Oct-16 12:01N 32°02' W 080°54'0 0.0
2017-Oct-16 11:31N 32°02' W 080°54'0 0.0
2017-Oct-16 11:01N 32°02' W 080°54'0 0.0
2017-Oct-16 10:31N 32°02' W 080°54'0 0.0
2017-Oct-16 10:01N 32°02' W 080°54'0 0.0
2017-Oct-16 09:31N 32°02' W 080°54'0 0.0
2017-Oct-16 09:01N 32°02' W 080°54'0 0.0
2017-Oct-16 08:30N 32°02' W 080°54'0 0.0
2017-Oct-16 08:01N 32°02' W 080°54'0 0.0
2017-Oct-16 07:31N 32°02' W 080°54'0 0.0
2017-Oct-16 07:01N 32°02' W 080°54'0 0.0
2017-Oct-16 06:31N 32°02' W 080°54'0 0.0
2017-Oct-16 06:01N 32°02' W 080°54'0 0.0
2017-Oct-16 05:31N 32°02' W 080°54'0 0.0
2017-Oct-16 05:01N 32°02' W 080°54'0 0.0
2017-Oct-16 04:30N 32°02' W 080°54'0 0.0
2017-Oct-16 04:00N 32°02' W 080°54'0 0.0
2017-Oct-16 03:31N 32°02' W 080°54'0 0.0
2017-Oct-16 03:00N 32°02' W 080°54'0 0.0
2017-Oct-16 02:31N 32°02' W 080°54'0 0.0
2017-Oct-16 02:00N 32°02' W 080°54'0 0.0
2017-Oct-16 01:31N 32°02' W 080°54'0 0.0
2017-Oct-16 01:01N 32°02' W 080°54'0 0.0
2017-Oct-16 00:30N 32°02' W 080°54'0 0.0
2017-Oct-16 00:00N 32°02' W 080°54'0 0.0
2017-Oct-15 23:31N 32°02' W 080°54'0 0.0
2017-Oct-15 23:00N 32°02' W 080°54'0 0.0
2017-Oct-15 22:31N 32°02' W 080°54'0 0.0
2017-Oct-15 22:01N 32°02' W 080°54'0 0.0
2017-Oct-15 21:30N 32°02' W 080°54'0 0.0
2017-Oct-15 21:01N 32°02' W 080°54'0 0.0
2017-Oct-15 20:31N 32°02' W 080°54'0 0.0
2017-Oct-15 20:00N 32°02' W 080°54'0 0.0
2017-Oct-15 19:30N 32°02' W 080°54'0 0.0
2017-Oct-15 19:01N 32°02' W 080°54'0 0.0
2017-Oct-15 18:31N 32°02' W 080°54'0 0.0
2017-Oct-15 18:01N 32°02' W 080°54'0 0.0
2017-Oct-15 17:30N 32°02' W 080°54'0 0.0
2017-Oct-15 17:01N 32°02' W 080°54'0 0.0
2017-Oct-15 16:31N 32°02' W 080°54'0 0.0
2017-Oct-15 16:01N 32°02' W 080°54'0 0.0
2017-Oct-15 15:31N 32°02' W 080°54'0 0.0
2017-Oct-15 15:01N 32°02' W 080°54'0 0.0
2017-Oct-15 14:01N 32°02' W 080°54'0 0.0
2017-Oct-15 13:30N 32°02' W 080°54'0 0.0
2017-Oct-15 13:01N 32°02' W 080°54'0 0.0
2017-Oct-15 12:30N 32°02' W 080°54'0 0.0
2017-Oct-15 12:01N 32°02' W 080°54'0 0.0
2017-Oct-15 11:30N 32°02' W 080°54'0 0.0
2017-Oct-15 11:00N 32°02' W 080°54'0 0.0
2017-Oct-15 10:30N 32°02' W 080°54'0 0.0
2017-Oct-15 09:59N 32°02' W 080°54'0 0.0
2017-Oct-15 09:31N 32°02' W 080°54'0 0.0
2017-Oct-15 09:00N 32°02' W 080°54'0 0.0
2017-Oct-15 08:31N 32°02' W 080°54'0 0.0
2017-Oct-15 08:00N 32°02' W 080°54'0 0.0
2017-Oct-15 07:31N 32°02' W 080°54'0 0.0
2017-Oct-15 07:01N 32°02' W 080°54'0 0.0
2017-Oct-15 06:31N 32°02' W 080°54'0 0.0
2017-Oct-15 06:01N 32°02' W 080°54'0 0.0
2017-Oct-15 05:30N 32°02' W 080°54'0 0.0
2017-Oct-15 05:01N 32°02' W 080°54'0 0.0
2017-Oct-15 04:31N 32°02' W 080°54'0 0.0
2017-Oct-15 04:01N 32°02' W 080°54'0 0.0
2017-Oct-15 03:30N 32°02' W 080°54'0 0.0
2017-Oct-15 03:01N 32°02' W 080°54'0 0.0
2017-Oct-15 02:31N 32°02' W 080°54'0 0.0
2017-Oct-15 02:00N 32°02' W 080°54'0 0.0
2017-Oct-15 01:29N 32°02' W 080°54'0 0.0
2017-Oct-15 00:59N 32°02' W 080°54'0 0.0
2017-Oct-15 00:30N 32°02' W 080°54'0 0.0
2017-Oct-15 00:00N 32°02' W 080°54'0 0.0
2017-Oct-14 23:30N 32°02' W 080°54'0 0.0
2017-Oct-14 23:01N 32°02' W 080°54'0 0.0
2017-Oct-14 22:31N 32°02' W 080°54'0 0.0
2017-Oct-14 22:01N 32°02' W 080°54'0 0.0
2017-Oct-14 21:31N 32°02' W 080°54'0 0.0
2017-Oct-14 21:01N 32°02' W 080°54'0 0.0
2017-Oct-14 20:31N 32°02' W 080°54'0 0.0
2017-Oct-14 20:01N 32°02' W 080°54'0 0.0
2017-Oct-14 19:30N 32°02' W 080°54'0 0.0
2017-Oct-14 19:01N 32°02' W 080°54'0 0.0
2017-Oct-14 18:31N 32°02' W 080°54'0 0.0
2017-Oct-14 18:01N 32°02' W 080°54'0 0.0
2017-Oct-14 17:30N 32°02' W 080°54'0 0.0
2017-Oct-14 17:00N 32°02' W 080°54'0 0.0
2017-Oct-14 16:30N 32°02' W 080°54'0 0.0
2017-Oct-14 16:00N 32°02' W 080°54'0 0.0
2017-Oct-14 15:30N 32°02' W 080°54'0 0.0
2017-Oct-14 15:00N 32°02' W 080°54'0 0.0
2017-Oct-14 14:31N 32°02' W 080°54'0 0.0
2017-Oct-14 14:01N 32°02' W 080°54'0 0.0
2017-Oct-14 13:30N 32°02' W 080°54'0 0.0
2017-Oct-14 13:01N 32°02' W 080°54'0 0.0
2017-Oct-14 12:30N 32°02' W 080°54'0 0.0
2017-Oct-14 12:00N 32°02' W 080°54'0 0.0
2017-Oct-14 11:30N 32°02' W 080°54'0 0.0
2017-Oct-14 11:00N 32°02' W 080°54'0 0.0
2017-Oct-14 10:30N 32°02' W 080°54'0 0.0
2017-Oct-14 10:01N 32°02' W 080°54'0 0.0
2017-Oct-14 09:30N 32°02' W 080°54'0 0.0
2017-Oct-14 08:59N 32°02' W 080°54'0 0.0
2017-Oct-14 08:31N 32°02' W 080°54'0 0.0
2017-Oct-14 08:00N 32°02' W 080°54'0 0.0
2017-Oct-14 07:31N 32°02' W 080°54'0 0.0
2017-Oct-14 07:00N 32°02' W 080°54'0 0.0
2017-Oct-14 06:30N 32°02' W 080°54'0 0.0
2017-Oct-14 06:01N 32°02' W 080°54'0 0.0
2017-Oct-14 05:30N 32°02' W 080°54'0 0.0
2017-Oct-14 05:00N 32°02' W 080°54'0 0.0
2017-Oct-14 04:31N 32°02' W 080°54'0 0.0
2017-Oct-14 04:01N 32°02' W 080°54'0 0.0
2017-Oct-14 03:30N 32°02' W 080°54'0 0.0
2017-Oct-14 03:01N 32°02' W 080°54'0 0.0
2017-Oct-14 02:31N 32°02' W 080°54'0 0.0
2017-Oct-14 02:01N 32°02' W 080°54'0 0.0
2017-Oct-14 01:31N 32°02' W 080°54'0 0.0
2017-Oct-14 00:58N 32°02' W 080°54'0 0.0
2017-Oct-14 00:31N 32°02' W 080°54'0 0.0
2017-Oct-13 23:58N 32°02' W 080°54'0 0.0
2017-Oct-13 23:30N 32°02' W 080°54'0 0.0
2017-Oct-13 23:01N 32°02' W 080°54'0 0.0
2017-Oct-13 22:30N 32°02' W 080°54'0 0.0
2017-Oct-13 22:00N 32°02' W 080°54'0 0.0
2017-Oct-13 21:31N 32°02' W 080°54'0 0.0
2017-Oct-13 21:01N 32°02' W 080°54'0 0.0
2017-Oct-13 20:31N 32°02' W 080°54'0 0.0
2017-Oct-13 20:01N 32°02' W 080°54'0 0.0
2017-Oct-13 19:30N 32°02' W 080°54'0 0.0
2017-Oct-13 19:01N 32°02' W 080°54'0 0.0
2017-Oct-13 18:31N 32°02' W 080°54'0 0.0
2017-Oct-13 18:00N 32°02' W 080°54'0 0.0
2017-Oct-13 17:31N 32°02' W 080°54'0 0.0
2017-Oct-13 17:01N 32°02' W 080°54'0 0.0
2017-Oct-13 16:30N 32°02' W 080°54'0 0.0
2017-Oct-13 16:00N 32°02' W 080°54'0 0.0
2017-Oct-13 15:31N 32°02' W 080°54'0 0.0
2017-Oct-13 15:01N 32°02' W 080°54'0 0.0
2017-Oct-13 14:30N 32°02' W 080°54'0 0.0
2017-Oct-13 14:00N 32°02' W 080°54'0 0.0
2017-Oct-13 13:31N 32°02' W 080°54'0 0.0
2017-Oct-13 13:01N 32°02' W 080°54'0 0.0
2017-Oct-13 12:31N 32°02' W 080°54'0 0.0
2017-Oct-13 12:01N 32°02' W 080°54'0 0.0
2017-Oct-13 11:30N 32°02' W 080°54'0 0.0
2017-Oct-13 11:00N 32°02' W 080°54'0 0.0
2017-Oct-13 10:30N 32°02' W 080°54'0 0.0
2017-Oct-13 10:00N 32°02' W 080°54'0 0.0
2017-Oct-13 09:30N 32°02' W 080°54'0 0.0
2017-Oct-13 09:00N 32°02' W 080°54'0 0.0
2017-Oct-13 08:31N 32°02' W 080°54'0 0.0
2017-Oct-13 08:00N 32°02' W 080°54'0 0.0
2017-Oct-13 07:30N 32°02' W 080°54'0 0.0
2017-Oct-13 07:01N 32°02' W 080°54'0 0.0
2017-Oct-13 06:31N 32°02' W 080°54'0 0.0
2017-Oct-13 06:01N 32°02' W 080°54'0 0.0
2017-Oct-13 05:30N 32°02' W 080°54'0 0.0
2017-Oct-13 05:01N 32°02' W 080°54'0 0.0
2017-Oct-13 04:30N 32°02' W 080°54'0 0.0
2017-Oct-13 04:01N 32°02' W 080°54'0 0.0
2017-Oct-13 03:31N 32°02' W 080°54'0 0.0
2017-Oct-13 03:01N 32°02' W 080°54'0 0.0
2017-Oct-13 02:31N 32°02' W 080°54'0 0.0
2017-Oct-13 02:01N 32°02' W 080°54'0 0.0
2017-Oct-13 01:31N 32°02' W 080°54'0 0.0
2017-Oct-13 01:01N 32°02' W 080°54'0 0.0
2017-Oct-13 00:30N 32°02' W 080°54'0 0.0
2017-Oct-13 00:01N 32°02' W 080°54'0 0.0
2017-Oct-12 23:31N 32°02' W 080°54'0 0.0
2017-Oct-12 23:00N 32°02' W 080°54'0 0.0
2017-Oct-12 22:31N 32°02' W 080°54'0 0.0
2017-Oct-12 22:01N 32°02' W 080°54'0 0.0
2017-Oct-12 21:31N 32°02' W 080°54'0 0.0
2017-Oct-12 21:01N 32°02' W 080°54'0 0.0
2017-Oct-12 20:30N 32°02' W 080°54'0 0.0
2017-Oct-12 20:01N 32°02' W 080°54'0 0.0
2017-Oct-12 19:31N 32°02' W 080°54'0 0.0
2017-Oct-12 19:01N 32°02' W 080°54'0 0.0
2017-Oct-12 18:30N 32°02' W 080°54'0 0.0
2017-Oct-12 18:00N 32°02' W 080°54'0 0.0
2017-Oct-12 17:31N 32°02' W 080°54'0 0.0
2017-Oct-12 17:01N 32°02' W 080°54'0 0.0
2017-Oct-12 16:30N 32°02' W 080°54'0 0.0
2017-Oct-12 16:01N 32°02' W 080°54'0 0.0
2017-Oct-12 15:31N 32°02' W 080°54'0 0.0
2017-Oct-12 15:00N 32°02' W 080°54'0 0.0
2017-Oct-12 14:31N 32°02' W 080°54'0 0.0
2017-Oct-12 14:00N 32°02' W 080°54'0 0.0
2017-Oct-12 13:31N 32°02' W 080°54'0 0.0
2017-Oct-12 13:00N 32°02' W 080°54'0 0.0
2017-Oct-12 12:30N 32°02' W 080°54'0 0.0
2017-Oct-12 12:00N 32°02' W 080°54'0 0.0
2017-Oct-12 11:31N 32°02' W 080°54'0 0.0
2017-Oct-12 11:01N 32°02' W 080°54'0 0.0
2017-Oct-12 10:31N 32°02' W 080°54'0 0.0
2017-Oct-12 10:00N 32°02' W 080°54'0 0.0
2017-Oct-12 09:30N 32°02' W 080°54'0 0.0
2017-Oct-12 09:00N 32°02' W 080°54'0 0.0
2017-Oct-12 08:31N 32°02' W 080°54'0 0.0
2017-Oct-12 08:00N 32°02' W 080°54'0 0.0
2017-Oct-12 07:31N 32°02' W 080°54'0 0.0
2017-Oct-12 07:00N 32°02' W 080°54'0 0.0
2017-Oct-12 06:31N 32°02' W 080°54'0 0.0
2017-Oct-12 06:01N 32°02' W 080°54'0 0.0
2017-Oct-12 05:31N 32°02' W 080°54'0 0.0
2017-Oct-12 05:01N 32°02' W 080°54'0 0.0
2017-Oct-12 04:31N 32°02' W 080°54'0 0.0
2017-Oct-12 04:00N 32°02' W 080°54'0 0.0
2017-Oct-12 03:31N 32°02' W 080°54'0 0.0
2017-Oct-12 03:00N 32°02' W 080°54'0 0.0
2017-Oct-12 02:31N 32°02' W 080°54'0 0.0
2017-Oct-12 02:00N 32°02' W 080°54'0 0.0
2017-Oct-12 01:31N 32°02' W 080°54'0 0.0
2017-Oct-12 01:01N 32°02' W 080°54'0 0.0
2017-Oct-12 00:31N 32°02' W 080°54'0 0.0
2017-Oct-12 00:01N 32°02' W 080°54'0 0.0
2017-Oct-11 23:31N 32°02' W 080°54'0 0.0
2017-Oct-11 23:01N 32°02' W 080°54'0 0.0
2017-Oct-11 22:29N 32°02' W 080°54'0 0.0
2017-Oct-11 22:00N 32°02' W 080°54'0 0.0
2017-Oct-11 21:31N 32°02' W 080°54'0 0.0
2017-Oct-11 21:00N 32°02' W 080°54'0 0.0
2017-Oct-11 20:30N 32°02' W 080°54'0 0.0
2017-Oct-11 20:01N 32°02' W 080°54'0 0.0
2017-Oct-11 19:31N 32°02' W 080°54'0 0.0
2017-Oct-11 19:01N 32°02' W 080°54'0 0.0
2017-Oct-11 18:31N 32°02' W 080°54'0 0.0
2017-Oct-11 18:01N 32°02' W 080°54'0 0.0
2017-Oct-11 17:31N 32°02' W 080°54'0 0.0
2017-Oct-11 17:00N 32°02' W 080°54'0 0.0
2017-Oct-11 00:00N 32°02' W 080°54'0 0.0
2017-Oct-10 23:31N 32°02' W 080°54'0 0.0
2017-Oct-10 23:01N 32°02' W 080°54'0 0.0
2017-Oct-10 22:30N 32°02' W 080°54'0 0.0
2017-Oct-10 22:00N 32°02' W 080°54'0 0.0
2017-Oct-10 21:30N 32°02' W 080°54'0 0.0
2017-Oct-10 21:00N 32°02' W 080°54'0 0.0
2017-Oct-10 20:30N 32°02' W 080°54'0 0.0
2017-Oct-10 20:01N 32°02' W 080°54'0 0.0
2017-Oct-10 19:30N 32°02' W 080°54'0 0.0
2017-Oct-10 19:00N 32°02' W 080°54'0 0.0
2017-Oct-10 18:31N 32°02' W 080°54'0 0.0
2017-Oct-10 18:00N 32°02' W 080°54'0 0.0
2017-Oct-10 17:31N 32°02' W 080°54'611.8
2017-Oct-10 17:01N 32°00' W 080°48'611.7
2017-Oct-10 16:30N 32°02' W 080°54'0 0.0
2017-Oct-10 16:00N 32°02' W 080°54'0 0.0
2017-Oct-10 15:30N 32°02' W 080°54'0 0.0
2017-Oct-10 15:00N 32°02' W 080°54'0 0.0
2017-Oct-10 14:00N 32°02' W 080°54'0 0.0
2017-Oct-10 13:30N 32°02' W 080°54'5 9.9
2017-Oct-10 13:00N 32°01' W 080°48'917.2
2017-Oct-10 12:30N 31°56' W 080°40'510.8
2017-Oct-10 12:00N 31°59' W 080°45'2 4.2
2017-Oct-10 11:29N 31°58' W 080°43'1021.0
2017-Oct-10 11:00N 32°02' W 080°54'0 0.0
2017-Oct-10 10:30N 32°02' W 080°54'0 0.0
2017-Oct-10 10:00N 32°02' W 080°54'0 0.0
2017-Oct-10 09:30N 32°02' W 080°54'0 0.0
2017-Oct-10 09:00N 32°02' W 080°54'0 0.0
2017-Oct-10 08:30N 32°02' W 080°54'0 0.0
2017-Oct-10 08:00N 32°02' W 080°54'0 0.0
2017-Oct-10 07:30N 32°02' W 080°54'0 0.0
2017-Oct-10 07:00N 32°02' W 080°54'0 0.0
2017-Oct-10 06:30N 32°02' W 080°54'0 0.0
2017-Oct-10 06:00N 32°02' W 080°54'0 0.0
2017-Oct-10 05:30N 32°02' W 080°54'0 0.0
2017-Oct-10 05:00N 32°02' W 080°54'0 0.0
2017-Oct-10 04:30N 32°02' W 080°54'0 0.0
2017-Oct-10 04:00N 32°02' W 080°54'0 0.0
2017-Oct-10 03:30N 32°02' W 080°54'0 0.0
2017-Oct-10 02:59N 32°02' W 080°54'0 0.0
2017-Oct-10 02:30N 32°02' W 080°54'0 0.0
2017-Oct-10 02:00N 32°02' W 080°54'0 0.0
2017-Oct-10 01:30N 32°02' W 080°54'0 0.0
2017-Oct-10 01:00N 32°02' W 080°54'0 0.0
2017-Oct-10 00:30N 32°02' W 080°54'0 0.0
2017-Oct-10 00:00N 32°02' W 080°54'0 0.0
2017-Oct-09 23:30N 32°02' W 080°54'0 0.0
2017-Oct-09 23:00N 32°02' W 080°54'0 0.0
2017-Oct-09 22:30N 32°02' W 080°54'0 0.0
2017-Oct-09 22:00N 32°02' W 080°54'0 0.0
2017-Oct-09 21:30N 32°02' W 080°54'0 0.0
2017-Oct-09 21:00N 32°02' W 080°54'0 0.0
2017-Oct-09 20:30N 32°02' W 080°54'0 0.0
2017-Oct-09 20:00N 32°02' W 080°54'0 0.0
2017-Oct-09 19:30N 32°02' W 080°54'0 0.0
2017-Oct-09 18:59N 32°02' W 080°54'0 0.0
2017-Oct-09 18:30N 32°02' W 080°54'0 0.0
2017-Oct-09 18:00N 32°02' W 080°54'0 0.0
2017-Oct-09 17:30N 32°02' W 080°54'0 0.0
2017-Oct-09 17:00N 32°02' W 080°54'0 0.0
2017-Oct-09 16:30N 32°02' W 080°54'0 0.0
2017-Oct-09 16:00N 32°02' W 080°54'0 0.0
2017-Oct-09 15:30N 32°02' W 080°54'0 0.0
2017-Oct-09 15:00N 32°02' W 080°54'0 0.0
2017-Oct-09 14:30N 32°02' W 080°54'0 0.0
2017-Oct-09 14:00N 32°02' W 080°54'0 0.0
2017-Oct-09 13:30N 32°02' W 080°54'0 0.0
2017-Oct-09 13:00N 32°02' W 080°54'0 0.0
2017-Oct-09 12:30N 32°02' W 080°54'0 0.0
2017-Oct-09 12:00N 32°02' W 080°54'0 0.0
2017-Oct-09 11:30N 32°02' W 080°54'0 0.0
2017-Oct-09 11:00N 32°02' W 080°54'0 0.0
2017-Oct-09 10:30N 32°02' W 080°54'0 0.0
2017-Oct-09 10:00N 32°02' W 080°54'0 0.0
2017-Oct-09 09:30N 32°02' W 080°54'0 0.0
2017-Oct-09 09:00N 32°02' W 080°54'0 0.0
2017-Oct-09 08:30N 32°02' W 080°54'0 0.0
2017-Oct-09 08:00N 32°02' W 080°54'0 0.0
2017-Oct-09 07:30N 32°02' W 080°54'0 0.0
2017-Oct-09 07:00N 32°02' W 080°54'0 0.0
2017-Oct-09 06:30N 32°02' W 080°54'0 0.0
2017-Oct-09 06:00N 32°02' W 080°54'0 0.0
2017-Oct-09 05:30N 32°02' W 080°54'0 0.0
2017-Oct-09 05:00N 32°02' W 080°54'0 0.0
2017-Oct-09 04:30N 32°02' W 080°54'0 0.0
2017-Oct-09 04:00N 32°02' W 080°54'0 0.0
2017-Oct-09 03:30N 32°02' W 080°54'0 0.0
2017-Oct-09 03:00N 32°02' W 080°54'0 0.0
2017-Oct-09 02:30N 32°02' W 080°54'0 0.0
2017-Oct-09 02:00N 32°02' W 080°54'0 0.0
2017-Oct-09 01:30N 32°02' W 080°54'0 0.0
2017-Oct-09 01:00N 32°02' W 080°54'0 0.0
2017-Oct-09 00:30N 32°02' W 080°54'0 0.0
2017-Oct-09 00:00N 32°02' W 080°54'0 0.0
2017-Oct-08 23:30N 32°02' W 080°54'0 0.0
2017-Oct-08 23:00N 32°02' W 080°54'0 0.0
2017-Oct-08 22:30N 32°02' W 080°54'0 0.0
2017-Oct-08 22:00N 32°02' W 080°54'0 0.0
2017-Oct-08 21:30N 32°02' W 080°54'0 0.0
2017-Oct-08 21:00N 32°02' W 080°54'0 0.0
2017-Oct-08 20:30N 32°02' W 080°54'0 0.0
2017-Oct-08 20:00N 32°02' W 080°54'0 0.0
2017-Oct-08 19:30N 32°02' W 080°54'0 0.0
2017-Oct-08 19:00N 32°02' W 080°54'0 0.0
2017-Oct-08 18:30N 32°02' W 080°54'0 0.0
2017-Oct-08 18:00N 32°02' W 080°54'0 0.0
2017-Oct-08 17:30N 32°02' W 080°54'0 0.0
2017-Oct-08 17:00N 32°02' W 080°54'0 0.0
2017-Oct-08 16:30N 32°02' W 080°54'0 0.0
2017-Oct-08 16:00N 32°02' W 080°54'0 0.0
2017-Oct-08 15:30N 32°02' W 080°54'0 0.0
2017-Oct-08 15:00N 32°02' W 080°54'0 0.0
2017-Oct-08 14:30N 32°02' W 080°54'0 0.0
2017-Oct-08 14:00N 32°02' W 080°54'0 0.0
2017-Oct-08 13:30N 32°02' W 080°54'0 0.0
2017-Oct-08 13:00N 32°02' W 080°54'0 0.0
2017-Oct-08 12:30N 32°02' W 080°54'0 0.0
2017-Oct-08 12:00N 32°02' W 080°54'0 0.0
2017-Oct-08 11:30N 32°02' W 080°54'0 0.0
2017-Oct-08 11:00N 32°02' W 080°54'  
Track history (hours):
 
Tides and Currents Weather Stations Pressure Air Temp Water Temp Dewpoint Dewpoint Depression Visibility Wind Speed Wind Dir Waves Ship Positions

Savannah

Owner: SAVANNAH BAR PILOTS INC, SAVANNAH, GA. More information available from US FCC via Universal Licensing System and Coast Guard Vessel Documentation Center.

Last reported at 2017-Oct-18 11:00 UTC. Time now 2017-Oct-18 11:26 UTC.
Position N 32°02' W 080°54'.

Length 18 m; draft 1.5 m.

Type: Pilot. MMSI: 367061140.

Date/timePositionNaut miles runAvg speedWind from/ knotsBaromVisibWave heightAir tempDewpointWater temp
2017-Oct-18 11:00N 32°02' W 080°54'0 0.0
2017-Oct-18 10:31N 32°02' W 080°54'0 0.0
2017-Oct-18 10:01N 32°02' W 080°54'0 0.0
2017-Oct-18 09:31N 32°02' W 080°54'0 0.0
2017-Oct-18 09:00N 32°02' W 080°54'0 0.0
2017-Oct-18 08:31N 32°02' W 080°54'0 0.0
2017-Oct-18 08:00N 32°02' W 080°54'0 0.0
2017-Oct-18 07:31N 32°02' W 080°54'0 0.0
2017-Oct-18 07:00N 32°02' W 080°54'1313.6
2017-Oct-18 06:01N 31°56' W 080°40'3 7.3
2017-Oct-18 05:35N 31°58' W 080°43'113.9
2017-Oct-18 05:30N 31°58' W 080°44'917.8
2017-Oct-18 05:00N 32°02' W 080°54'0 0.5
2017-Oct-18 04:30N 32°02' W 080°54'0 0.0
2017-Oct-18 04:00N 32°02' W 080°54'0 0.0
2017-Oct-18 03:30N 32°02' W 080°54'0 0.0
2017-Oct-18 03:00N 32°02' W 080°54'0 0.0
2017-Oct-18 02:30N 32°02' W 080°54'0 0.0
2017-Oct-18 02:00N 32°02' W 080°54'0 0.0
2017-Oct-18 01:30N 32°02' W 080°54'0 0.0
2017-Oct-18 01:00N 32°02' W 080°54'510.9
2017-Oct-18 00:31N 32°01' W 080°48'1 2.5
2017-Oct-18 00:00N 31°60' W 080°47'510.2
2017-Oct-17 23:30N 32°02' W 080°52'2 3.3
2017-Oct-17 23:00N 32°02' W 080°54'0 0.0
2017-Oct-17 22:30N 32°02' W 080°54'0 0.0
2017-Oct-17 22:00N 32°02' W 080°54'0 0.0
2017-Oct-17 21:30N 32°02' W 080°54'0 0.0
2017-Oct-17 21:00N 32°02' W 080°54'0 0.0
2017-Oct-17 20:30N 32°02' W 080°54'0 0.0
2017-Oct-17 19:59N 32°02' W 080°54'0 0.0
2017-Oct-17 19:30N 32°02' W 080°54'0 0.0
2017-Oct-17 19:00N 32°02' W 080°54'0 0.0
2017-Oct-17 18:30N 32°02' W 080°54'0 0.0
2017-Oct-17 18:00N 32°02' W 080°54'0 0.0
2017-Oct-17 17:30N 32°02' W 080°54'0 0.0
2017-Oct-17 17:00N 32°02' W 080°54'4 7.7
2017-Oct-17 16:30N 32°02' W 080°50'1017.7
2017-Oct-17 15:54N 31°57' W 080°39'512.7
2017-Oct-17 15:29N 31°58' W 080°45'918.2
2017-Oct-17 15:01N 32°02' W 080°54'0 0.0
2017-Oct-17 14:30N 32°02' W 080°54'0 0.0
2017-Oct-17 14:01N 32°02' W 080°54'0 0.0
2017-Oct-17 13:31N 32°02' W 080°54'0 0.0
2017-Oct-17 13:00N 32°02' W 080°54'0 0.0
2017-Oct-17 12:30N 32°02' W 080°54'0 0.0
2017-Oct-17 12:01N 32°02' W 080°54'0 0.0
2017-Oct-17 11:31N 32°02' W 080°54'0 0.0
2017-Oct-17 11:01N 32°02' W 080°54'0 0.0
2017-Oct-17 10:31N 32°02' W 080°54'0 0.0
2017-Oct-17 10:01N 32°02' W 080°54'0 0.0
2017-Oct-17 09:30N 32°02' W 080°54'0 0.9
2017-Oct-17 09:00N 32°02' W 080°54'0 0.9
2017-Oct-17 08:30N 32°02' W 080°54'0 0.0
2017-Oct-17 08:01N 32°02' W 080°54'0 0.0
2017-Oct-17 07:31N 32°02' W 080°54'0 0.0
2017-Oct-17 07:01N 32°02' W 080°54'0 0.0
2017-Oct-17 06:31N 32°02' W 080°54'0 0.0
2017-Oct-17 06:01N 32°02' W 080°54'0 0.0
2017-Oct-17 05:30N 32°02' W 080°54'0 0.0
2017-Oct-17 05:01N 32°02' W 080°54'0 0.0
2017-Oct-17 04:31N 32°02' W 080°54'0 0.0
2017-Oct-17 04:00N 32°02' W 080°54'0 0.0
2017-Oct-17 03:31N 32°02' W 080°54'0 0.0
2017-Oct-17 03:00N 32°02' W 080°54'0 0.0
2017-Oct-17 02:30N 32°02' W 080°54'0 0.0
2017-Oct-17 02:00N 32°02' W 080°54'0 0.0
2017-Oct-17 01:31N 32°02' W 080°54'0 0.0
2017-Oct-17 01:01N 32°02' W 080°54'0 0.0
2017-Oct-17 00:31N 32°02' W 080°54'0 0.0
2017-Oct-17 00:01N 32°02' W 080°54'0 0.0
2017-Oct-16 23:30N 32°02' W 080°54'0 0.0
2017-Oct-16 23:01N 32°02' W 080°54'0 0.0
2017-Oct-16 22:31N 32°02' W 080°54'0 0.0
2017-Oct-16 22:01N 32°02' W 080°54'0 0.0
2017-Oct-16 21:30N 32°02' W 080°54'0 0.0
2017-Oct-16 21:01N 32°02' W 080°54'0 0.0
2017-Oct-16 20:30N 32°02' W 080°54'0 0.0
2017-Oct-16 20:01N 32°02' W 080°54'0 0.0
2017-Oct-16 19:30N 32°02' W 080°54'0 0.0
2017-Oct-16 19:00N 32°02' W 080°54'0 0.0
2017-Oct-16 18:31N 32°02' W 080°54'0 0.0
2017-Oct-16 18:01N 32°02' W 080°54'0 0.0
2017-Oct-16 17:31N 32°02' W 080°54'0 0.0
2017-Oct-16 17:00N 32°02' W 080°54'0 0.0
2017-Oct-16 16:31N 32°02' W 080°54'0 0.0
2017-Oct-16 16:01N 32°02' W 080°54'0 0.0
2017-Oct-16 15:31N 32°02' W 080°54'0 0.0
2017-Oct-16 15:01N 32°02' W 080°54'0 0.0
2017-Oct-16 14:30N 32°02' W 080°54'0 0.0
2017-Oct-16 13:31N 32°02' W 080°54'0 0.0
2017-Oct-16 13:01N 32°02' W 080°54'0 0.0
2017-Oct-16 12:30N 32°02' W 080°54'0 0.0
2017-Oct-16 12:01N 32°02' W 080°54'0 0.0
2017-Oct-16 11:31N 32°02' W 080°54'0 0.0
2017-Oct-16 11:01N 32°02' W 080°54'0 0.0
2017-Oct-16 10:31N 32°02' W 080°54'0 0.0
2017-Oct-16 10:01N 32°02' W 080°54'0 0.0
2017-Oct-16 09:31N 32°02' W 080°54'0 0.0
2017-Oct-16 09:01N 32°02' W 080°54'0 0.0
2017-Oct-16 08:30N 32°02' W 080°54'0 0.0
2017-Oct-16 08:01N 32°02' W 080°54'0 0.0
2017-Oct-16 07:31N 32°02' W 080°54'0 0.0
2017-Oct-16 07:01N 32°02' W 080°54'0 0.0
2017-Oct-16 06:31N 32°02' W 080°54'0 0.0
2017-Oct-16 06:01N 32°02' W 080°54'0 0.0
2017-Oct-16 05:31N 32°02' W 080°54'0 0.0
2017-Oct-16 05:01N 32°02' W 080°54'0 0.0
2017-Oct-16 04:30N 32°02' W 080°54'0 0.0
2017-Oct-16 04:00N 32°02' W 080°54'0 0.0
2017-Oct-16 03:31N 32°02' W 080°54'0 0.0
2017-Oct-16 03:00N 32°02' W 080°54'0 0.0
2017-Oct-16 02:31N 32°02' W 080°54'0 0.0
2017-Oct-16 02:00N 32°02' W 080°54'0 0.0
2017-Oct-16 01:31N 32°02' W 080°54'0 0.0
2017-Oct-16 01:01N 32°02' W 080°54'0 0.0
2017-Oct-16 00:30N 32°02' W 080°54'0 0.0
2017-Oct-16 00:00N 32°02' W 080°54'0 0.0
2017-Oct-15 23:31N 32°02' W 080°54'0 0.0
2017-Oct-15 23:00N 32°02' W 080°54'0 0.0
2017-Oct-15 22:31N 32°02' W 080°54'0 0.0
2017-Oct-15 22:01N 32°02' W 080°54'0 0.0
2017-Oct-15 21:30N 32°02' W 080°54'0 0.0
2017-Oct-15 21:01N 32°02' W 080°54'0 0.0
2017-Oct-15 20:31N 32°02' W 080°54'0 0.0
2017-Oct-15 20:00N 32°02' W 080°54'0 0.0
2017-Oct-15 19:30N 32°02' W 080°54'0 0.0
2017-Oct-15 19:01N 32°02' W 080°54'0 0.0
2017-Oct-15 18:31N 32°02' W 080°54'0 0.0
2017-Oct-15 18:01N 32°02' W 080°54'0 0.0
2017-Oct-15 17:30N 32°02' W 080°54'0 0.0
2017-Oct-15 17:01N 32°02' W 080°54'0 0.0
2017-Oct-15 16:31N 32°02' W 080°54'0 0.0
2017-Oct-15 16:01N 32°02' W 080°54'0 0.0
2017-Oct-15 15:31N 32°02' W 080°54'0 0.0
2017-Oct-15 15:01N 32°02' W 080°54'0 0.0
2017-Oct-15 14:01N 32°02' W 080°54'0 0.0
2017-Oct-15 13:30N 32°02' W 080°54'0 0.0
2017-Oct-15 13:01N 32°02' W 080°54'0 0.0
2017-Oct-15 12:30N 32°02' W 080°54'0 0.0
2017-Oct-15 12:01N 32°02' W 080°54'0 0.0
2017-Oct-15 11:30N 32°02' W 080°54'0 0.0
2017-Oct-15 11:00N 32°02' W 080°54'0 0.0
2017-Oct-15 10:30N 32°02' W 080°54'0 0.0
2017-Oct-15 09:59N 32°02' W 080°54'0 0.0
2017-Oct-15 09:31N 32°02' W 080°54'0 0.0
2017-Oct-15 09:00N 32°02' W 080°54'0 0.0
2017-Oct-15 08:31N 32°02' W 080°54'0 0.0
2017-Oct-15 08:00N 32°02' W 080°54'0 0.0
2017-Oct-15 07:31N 32°02' W 080°54'0 0.0
2017-Oct-15 07:01N 32°02' W 080°54'0 0.0
2017-Oct-15 06:31N 32°02' W 080°54'0 0.0
2017-Oct-15 06:01N 32°02' W 080°54'0 0.0
2017-Oct-15 05:30N 32°02' W 080°54'0 0.0
2017-Oct-15 05:01N 32°02' W 080°54'0 0.0
2017-Oct-15 04:31N 32°02' W 080°54'0 0.0
2017-Oct-15 04:01N 32°02' W 080°54'0 0.0
2017-Oct-15 03:30N 32°02' W 080°54'0 0.0
2017-Oct-15 03:01N 32°02' W 080°54'0 0.0
2017-Oct-15 02:31N 32°02' W 080°54'0 0.0
2017-Oct-15 02:00N 32°02' W 080°54'0 0.0
2017-Oct-15 01:29N 32°02' W 080°54'0 0.0
2017-Oct-15 00:59N 32°02' W 080°54'0 0.0
2017-Oct-15 00:30N 32°02' W 080°54'0 0.0
2017-Oct-15 00:00N 32°02' W 080°54'0 0.0
2017-Oct-14 23:30N 32°02' W 080°54'0 0.0
2017-Oct-14 23:01N 32°02' W 080°54'0 0.0
2017-Oct-14 22:31N 32°02' W 080°54'0 0.0
2017-Oct-14 22:01N 32°02' W 080°54'0 0.0
2017-Oct-14 21:31N 32°02' W 080°54'0 0.0
2017-Oct-14 21:01N 32°02' W 080°54'0 0.0
2017-Oct-14 20:31N 32°02' W 080°54'0 0.0
2017-Oct-14 20:01N 32°02' W 080°54'0 0.0
2017-Oct-14 19:30N 32°02' W 080°54'0 0.0
2017-Oct-14 19:01N 32°02' W 080°54'0 0.0
2017-Oct-14 18:31N 32°02' W 080°54'0 0.0
2017-Oct-14 18:01N 32°02' W 080°54'0 0.0
2017-Oct-14 17:30N 32°02' W 080°54'0 0.0
2017-Oct-14 17:00N 32°02' W 080°54'0 0.0
2017-Oct-14 16:30N 32°02' W 080°54'0 0.0
2017-Oct-14 16:00N 32°02' W 080°54'0 0.0
2017-Oct-14 15:30N 32°02' W 080°54'0 0.0
2017-Oct-14 15:00N 32°02' W 080°54'0 0.0
2017-Oct-14 14:31N 32°02' W 080°54'0 0.0
2017-Oct-14 14:01N 32°02' W 080°54'0 0.0
2017-Oct-14 13:30N 32°02' W 080°54'0 0.0
2017-Oct-14 13:01N 32°02' W 080°54'0 0.0
2017-Oct-14 12:30N 32°02' W 080°54'0 0.0
2017-Oct-14 12:00N 32°02' W 080°54'0 0.0
2017-Oct-14 11:30N 32°02' W 080°54'0 0.0
2017-Oct-14 11:00N 32°02' W 080°54'0 0.0
2017-Oct-14 10:30N 32°02' W 080°54'0 0.0
2017-Oct-14 10:01N 32°02' W 080°54'0 0.0
2017-Oct-14 09:30N 32°02' W 080°54'0 0.0
2017-Oct-14 08:59N 32°02' W 080°54'0 0.0
2017-Oct-14 08:31N 32°02' W 080°54'0 0.0
2017-Oct-14 08:00N 32°02' W 080°54'0 0.0
2017-Oct-14 07:31N 32°02' W 080°54'0 0.0
2017-Oct-14 07:00N 32°02' W 080°54'0 0.0
2017-Oct-14 06:30N 32°02' W 080°54'0 0.0
2017-Oct-14 06:01N 32°02' W 080°54'0 0.0
2017-Oct-14 05:30N 32°02' W 080°54'0 0.0
2017-Oct-14 05:00N 32°02' W 080°54'0 0.0
2017-Oct-14 04:31N 32°02' W 080°54'0 0.0
2017-Oct-14 04:01N 32°02' W 080°54'0 0.0
2017-Oct-14 03:30N 32°02' W 080°54'0 0.0
2017-Oct-14 03:01N 32°02' W 080°54'0 0.0
2017-Oct-14 02:31N 32°02' W 080°54'0 0.0
2017-Oct-14 02:01N 32°02' W 080°54'0 0.0
2017-Oct-14 01:31N 32°02' W 080°54'0 0.0
2017-Oct-14 00:58N 32°02' W 080°54'0 0.0
2017-Oct-14 00:31N 32°02' W 080°54'0 0.0
2017-Oct-13 23:58N 32°02' W 080°54'0 0.0
2017-Oct-13 23:30N 32°02' W 080°54'0 0.0
2017-Oct-13 23:01N 32°02' W 080°54'0 0.0
2017-Oct-13 22:30N 32°02' W 080°54'0 0.0
2017-Oct-13 22:00N 32°02' W 080°54'0 0.0
2017-Oct-13 21:31N 32°02' W 080°54'0 0.0
2017-Oct-13 21:01N 32°02' W 080°54'0 0.0
2017-Oct-13 20:31N 32°02' W 080°54'0 0.0
2017-Oct-13 20:01N 32°02' W 080°54'0 0.0
2017-Oct-13 19:30N 32°02' W 080°54'0 0.0
2017-Oct-13 19:01N 32°02' W 080°54'0 0.0
2017-Oct-13 18:31N 32°02' W 080°54'0 0.0
2017-Oct-13 18:00N 32°02' W 080°54'0 0.0
2017-Oct-13 17:31N 32°02' W 080°54'0 0.0
2017-Oct-13 17:01N 32°02' W 080°54'0 0.0
2017-Oct-13 16:30N 32°02' W 080°54'0 0.0
2017-Oct-13 16:00N 32°02' W 080°54'0 0.0
2017-Oct-13 15:31N 32°02' W 080°54'0 0.0
2017-Oct-13 15:01N 32°02' W 080°54'0 0.0
2017-Oct-13 14:30N 32°02' W 080°54'0 0.0
2017-Oct-13 14:00N 32°02' W 080°54'0 0.0
2017-Oct-13 13:31N 32°02' W 080°54'0 0.0
2017-Oct-13 13:01N 32°02' W 080°54'0 0.0
2017-Oct-13 12:31N 32°02' W 080°54'0 0.0
2017-Oct-13 12:01N 32°02' W 080°54'0 0.0
2017-Oct-13 11:30N 32°02' W 080°54'0 0.0
2017-Oct-13 11:00N 32°02' W 080°54'0 0.0
2017-Oct-13 10:30N 32°02' W 080°54'0 0.0
2017-Oct-13 10:00N 32°02' W 080°54'0 0.0
2017-Oct-13 09:30N 32°02' W 080°54'0 0.0
2017-Oct-13 09:00N 32°02' W 080°54'0 0.0
2017-Oct-13 08:31N 32°02' W 080°54'0 0.0
2017-Oct-13 08:00N 32°02' W 080°54'0 0.0
2017-Oct-13 07:30N 32°02' W 080°54'0 0.0
2017-Oct-13 07:01N 32°02' W 080°54'0 0.0
2017-Oct-13 06:31N 32°02' W 080°54'0 0.0
2017-Oct-13 06:01N 32°02' W 080°54'0 0.0
2017-Oct-13 05:30N 32°02' W 080°54'0 0.0
2017-Oct-13 05:01N 32°02' W 080°54'0 0.0
2017-Oct-13 04:30N 32°02' W 080°54'0 0.0
2017-Oct-13 04:01N 32°02' W 080°54'0 0.0
2017-Oct-13 03:31N 32°02' W 080°54'0 0.0
2017-Oct-13 03:01N 32°02' W 080°54'0 0.0
2017-Oct-13 02:31N 32°02' W 080°54'0 0.0
2017-Oct-13 02:01N 32°02' W 080°54'0 0.0
2017-Oct-13 01:31N 32°02' W 080°54'0 0.0
2017-Oct-13 01:01N 32°02' W 080°54'0 0.0
2017-Oct-13 00:30N 32°02' W 080°54'0 0.0
2017-Oct-13 00:01N 32°02' W 080°54'0 0.0
2017-Oct-12 23:31N 32°02' W 080°54'0 0.0
2017-Oct-12 23:00N 32°02' W 080°54'0 0.0
2017-Oct-12 22:31N 32°02' W 080°54'0 0.0
2017-Oct-12 22:01N 32°02' W 080°54'0 0.0
2017-Oct-12 21:31N 32°02' W 080°54'0 0.0
2017-Oct-12 21:01N 32°02' W 080°54'0 0.0
2017-Oct-12 20:30N 32°02' W 080°54'0 0.0
2017-Oct-12 20:01N 32°02' W 080°54'0 0.0
2017-Oct-12 19:31N 32°02' W 080°54'0 0.0
2017-Oct-12 19:01N 32°02' W 080°54'0 0.0
2017-Oct-12 18:30N 32°02' W 080°54'0 0.0
2017-Oct-12 18:00N 32°02' W 080°54'0 0.0
2017-Oct-12 17:31N 32°02' W 080°54'0 0.0
2017-Oct-12 17:01N 32°02' W 080°54'0 0.0
2017-Oct-12 16:30N 32°02' W 080°54'0 0.0
2017-Oct-12 16:01N 32°02' W 080°54'0 0.0
2017-Oct-12 15:31N 32°02' W 080°54'0 0.0
2017-Oct-12 15:00N 32°02' W 080°54'0 0.0
2017-Oct-12 14:31N 32°02' W 080°54'0 0.0
2017-Oct-12 14:00N 32°02' W 080°54'0 0.0
2017-Oct-12 13:31N 32°02' W 080°54'0 0.0
2017-Oct-12 13:00N 32°02' W 080°54'0 0.0
2017-Oct-12 12:30N 32°02' W 080°54'0 0.0
2017-Oct-12 12:00N 32°02' W 080°54'0 0.0
2017-Oct-12 11:31N 32°02' W 080°54'0 0.0
2017-Oct-12 11:01N 32°02' W 080°54'0 0.0
2017-Oct-12 10:31N 32°02' W 080°54'0 0.0
2017-Oct-12 10:00N 32°02' W 080°54'0 0.0
2017-Oct-12 09:30N 32°02' W 080°54'0 0.0
2017-Oct-12 09:00N 32°02' W 080°54'0 0.0
2017-Oct-12 08:31N 32°02' W 080°54'0 0.0
2017-Oct-12 08:00N 32°02' W 080°54'0 0.0
2017-Oct-12 07:31N 32°02' W 080°54'0 0.0
2017-Oct-12 07:00N 32°02' W 080°54'0 0.0
2017-Oct-12 06:31N 32°02' W 080°54'0 0.0
2017-Oct-12 06:01N 32°02' W 080°54'0 0.0
2017-Oct-12 05:31N 32°02' W 080°54'0 0.0
2017-Oct-12 05:01N 32°02' W 080°54'0 0.0
2017-Oct-12 04:31N 32°02' W 080°54'0 0.0
2017-Oct-12 04:00N 32°02' W 080°54'0 0.0
2017-Oct-12 03:31N 32°02' W 080°54'0 0.0
2017-Oct-12 03:00N 32°02' W 080°54'0 0.0
2017-Oct-12 02:31N 32°02' W 080°54'0 0.0
2017-Oct-12 02:00N 32°02' W 080°54'0 0.0
2017-Oct-12 01:31N 32°02' W 080°54'0 0.0
2017-Oct-12 01:01N 32°02' W 080°54'0 0.0
2017-Oct-12 00:31N 32°02' W 080°54'0 0.0
2017-Oct-12 00:01N 32°02' W 080°54'0 0.0
2017-Oct-11 23:31N 32°02' W 080°54'0 0.0
2017-Oct-11 23:01N 32°02' W 080°54'0 0.0
2017-Oct-11 22:29N 32°02' W 080°54'0 0.0
2017-Oct-11 22:00N 32°02' W 080°54'0 0.0
2017-Oct-11 21:31N 32°02' W 080°54'0 0.0
2017-Oct-11 21:00N 32°02' W 080°54'0 0.0
2017-Oct-11 20:30N 32°02' W 080°54'0 0.0
2017-Oct-11 20:01N 32°02' W 080°54'0 0.0
2017-Oct-11 19:31N 32°02' W 080°54'0 0.0
2017-Oct-11 19:01N 32°02' W 080°54'0 0.0
2017-Oct-11 18:31N 32°02' W 080°54'0 0.0
2017-Oct-11 18:01N 32°02' W 080°54'0 0.0
2017-Oct-11 17:31N 32°02' W 080°54'0 0.0
2017-Oct-11 17:00N 32°02' W 080°54'0 0.0
2017-Oct-11 00:00N 32°02' W 080°54'0 0.0
2017-Oct-10 23:31N 32°02' W 080°54'0 0.0
2017-Oct-10 23:01N 32°02' W 080°54'0 0.0
2017-Oct-10 22:30N 32°02' W 080°54'0 0.0
2017-Oct-10 22:00N 32°02' W 080°54'0 0.0
2017-Oct-10 21:30N 32°02' W 080°54'0 0.0
2017-Oct-10 21:00N 32°02' W 080°54'0 0.0
2017-Oct-10 20:30N 32°02' W 080°54'0 0.0
2017-Oct-10 20:01N 32°02' W 080°54'0 0.0
2017-Oct-10 19:30N 32°02' W 080°54'0 0.0
2017-Oct-10 19:00N 32°02' W 080°54'0 0.0
2017-Oct-10 18:31N 32°02' W 080°54'0 0.0
2017-Oct-10 18:00N 32°02' W 080°54'0 0.0
2017-Oct-10 17:31N 32°02' W 080°54'611.8
2017-Oct-10 17:01N 32°00' W 080°48'611.7
2017-Oct-10 16:30N 32°02' W 080°54'0 0.0
2017-Oct-10 16:00N 32°02' W 080°54'0 0.0
2017-Oct-10 15:30N 32°02' W 080°54'0 0.0
2017-Oct-10 15:00N 32°02' W 080°54'0 0.0
2017-Oct-10 14:00N 32°02' W 080°54'0 0.0
2017-Oct-10 13:30N 32°02' W 080°54'5 9.9
2017-Oct-10 13:00N 32°01' W 080°48'917.2
2017-Oct-10 12:30N 31°56' W 080°40'510.8
2017-Oct-10 12:00N 31°59' W 080°45'2 4.2
2017-Oct-10 11:29N 31°58' W 080°43'1021.0
2017-Oct-10 11:00N 32°02' W 080°54'0 0.0
2017-Oct-10 10:30N 32°02' W 080°54'0 0.0
2017-Oct-10 10:00N 32°02' W 080°54'0 0.0
2017-Oct-10 09:30N 32°02' W 080°54'0 0.0
2017-Oct-10 09:00N 32°02' W 080°54'0 0.0
2017-Oct-10 08:30N 32°02' W 080°54'0 0.0
2017-Oct-10 08:00N 32°02' W 080°54'0 0.0
2017-Oct-10 07:30N 32°02' W 080°54'0 0.0
2017-Oct-10 07:00N 32°02' W 080°54'0 0.0
2017-Oct-10 06:30N 32°02' W 080°54'0 0.0
2017-Oct-10 06:00N 32°02' W 080°54'0 0.0
2017-Oct-10 05:30N 32°02' W 080°54'0 0.0
2017-Oct-10 05:00N 32°02' W 080°54'0 0.0
2017-Oct-10 04:30N 32°02' W 080°54'0 0.0
2017-Oct-10 04:00N 32°02' W 080°54'0 0.0
2017-Oct-10 03:30N 32°02' W 080°54'0 0.0
2017-Oct-10 02:59N 32°02' W 080°54'0 0.0
2017-Oct-10 02:30N 32°02' W 080°54'0 0.0
2017-Oct-10 02:00N 32°02' W 080°54'0 0.0
2017-Oct-10 01:30N 32°02' W 080°54'0 0.0
2017-Oct-10 01:00N 32°02' W 080°54'0 0.0
2017-Oct-10 00:30N 32°02' W 080°54'0 0.0
2017-Oct-10 00:00N 32°02' W 080°54'0 0.0
2017-Oct-09 23:30N 32°02' W 080°54'0 0.0
2017-Oct-09 23:00N 32°02' W 080°54'0 0.0
2017-Oct-09 22:30N 32°02' W 080°54'0 0.0
2017-Oct-09 22:00N 32°02' W 080°54'0 0.0
2017-Oct-09 21:30N 32°02' W 080°54'0 0.0
2017-Oct-09 21:00N 32°02' W 080°54'0 0.0
2017-Oct-09 20:30N 32°02' W 080°54'0 0.0
2017-Oct-09 20:00N 32°02' W 080°54'0 0.0
2017-Oct-09 19:30N 32°02' W 080°54'0 0.0
2017-Oct-09 18:59N 32°02' W 080°54'0 0.0
2017-Oct-09 18:30N 32°02' W 080°54'0 0.0
2017-Oct-09 18:00N 32°02' W 080°54'0 0.0
2017-Oct-09 17:30N 32°02' W 080°54'0 0.0
2017-Oct-09 17:00N 32°02' W 080°54'0 0.0
2017-Oct-09 16:30N 32°02' W 080°54'0 0.0
2017-Oct-09 16:00N 32°02' W 080°54'0 0.0
2017-Oct-09 15:30N 32°02' W 080°54'0 0.0
2017-Oct-09 15:00N 32°02' W 080°54'0 0.0
2017-Oct-09 14:30N 32°02' W 080°54'0 0.0
2017-Oct-09 14:00N 32°02' W 080°54'0 0.0
2017-Oct-09 13:30N 32°02' W 080°54'0 0.0
2017-Oct-09 13:00N 32°02' W 080°54'0 0.0
2017-Oct-09 12:30N 32°02' W 080°54'0 0.0
2017-Oct-09 12:00N 32°02' W 080°54'0 0.0
2017-Oct-09 11:30N 32°02' W 080°54'0 0.0
2017-Oct-09 11:00N 32°02' W 080°54'0 0.0
2017-Oct-09 10:30N 32°02' W 080°54'0 0.0
2017-Oct-09 10:00N 32°02' W 080°54'0 0.0
2017-Oct-09 09:30N 32°02' W 080°54'0 0.0
2017-Oct-09 09:00N 32°02' W 080°54'0 0.0
2017-Oct-09 08:30N 32°02' W 080°54'0 0.0
2017-Oct-09 08:00N 32°02' W 080°54'0 0.0
2017-Oct-09 07:30N 32°02' W 080°54'0 0.0
2017-Oct-09 07:00N 32°02' W 080°54'0 0.0
2017-Oct-09 06:30N 32°02' W 080°54'0 0.0
2017-Oct-09 06:00N 32°02' W 080°54'0 0.0
2017-Oct-09 05:30N 32°02' W 080°54'0 0.0
2017-Oct-09 05:00N 32°02' W 080°54'0 0.0
2017-Oct-09 04:30N 32°02' W 080°54'0 0.0
2017-Oct-09 04:00N 32°02' W 080°54'0 0.0
2017-Oct-09 03:30N 32°02' W 080°54'0 0.0
2017-Oct-09 03:00N 32°02' W 080°54'0 0.0
2017-Oct-09 02:30N 32°02' W 080°54'0 0.0
2017-Oct-09 02:00N 32°02' W 080°54'0 0.0
2017-Oct-09 01:30N 32°02' W 080°54'0 0.0
2017-Oct-09 01:00N 32°02' W 080°54'0 0.0
2017-Oct-09 00:30N 32°02' W 080°54'0 0.0
2017-Oct-09 00:00N 32°02' W 080°54'0 0.0
2017-Oct-08 23:30N 32°02' W 080°54'0 0.0
2017-Oct-08 23:00N 32°02' W 080°54'0 0.0
2017-Oct-08 22:30N 32°02' W 080°54'0 0.0
2017-Oct-08 22:00N 32°02' W 080°54'0 0.0
2017-Oct-08 21:30N 32°02' W 080°54'0 0.0
2017-Oct-08 21:00N 32°02' W 080°54'0 0.0
2017-Oct-08 20:30N 32°02' W 080°54'0 0.0
2017-Oct-08 20:00N 32°02' W 080°54'0 0.0
2017-Oct-08 19:30N 32°02' W 080°54'0 0.0
2017-Oct-08 19:00N 32°02' W 080°54'0 0.0
2017-Oct-08 18:30N 32°02' W 080°54'0 0.0
2017-Oct-08 18:00N 32°02' W 080°54'0 0.0
2017-Oct-08 17:30N 32°02' W 080°54'0 0.0
2017-Oct-08 17:00N 32°02' W 080°54'0 0.0
2017-Oct-08 16:30N 32°02' W 080°54'0 0.0
2017-Oct-08 16:00N 32°02' W 080°54'0 0.0
2017-Oct-08 15:30N 32°02' W 080°54'0 0.0
2017-Oct-08 15:00N 32°02' W 080°54'0 0.0
2017-Oct-08 14:30N 32°02' W 080°54'0 0.0
2017-Oct-08 14:00N 32°02' W 080°54'0 0.0
2017-Oct-08 13:30N 32°02' W 080°54'0 0.0
2017-Oct-08 13:00N 32°02' W 080°54'0 0.0
2017-Oct-08 12:30N 32°02' W 080°54'0 0.0
2017-Oct-08 12:00N 32°02' W 080°54'0 0.0
2017-Oct-08 11:30N 32°02' W 080°54'0 0.0
2017-Oct-08 11:00N 32°02' W 080°54'  

Dump ship's entire track history